Terminal Aerodrome Forecast
Issued by NWS

Home | Current Version | Previous Version | Text Only | Print | Product List | Glossary On
Versions: 1 2 3 4 5 6 7 8 9 10 11 12 13 14
000
FTAK31 PANC 181421 AAA
TAFAIL
TAF AMD
PAIL 181421Z 1814/1912 01004KT P6SM -SHRA SCT020 BKN035
      TEMPO 1814/1818 BKN020
     FM182000 10008KT P6SM BKN060
     FM190300 10010G20KT P6SM SCT060=

USA.gov is the U.S. government's official web portal to all federal, state and local government web resources and services.